createdAt,value
2022-12-09T00:00:04.347Z,88.85
2022-12-09T00:03:09.228Z,88.56
2022-12-09T00:06:16.453Z,88.55
2022-12-09T00:09:21.394Z,88.31
2022-12-09T00:12:24.375Z,88.42
2022-12-09T00:15:27.375Z,88.25
2022-12-09T00:18:30.421Z,88.58
2022-12-09T00:21:34.703Z,88.61
2022-12-09T00:24:39.144Z,88.95
2022-12-09T00:27:42.075Z,89.22
2022-12-09T00:30:45.176Z,89.43
2022-12-09T00:33:48.332Z,89.16
2022-12-09T00:36:51.191Z,89.37
2022-12-09T00:39:55.440Z,89.48
2022-12-09T00:42:58.331Z,89.73
2022-12-09T00:46:02.981Z,89.68
2022-12-09T00:49:06.001Z,89.57
2022-12-09T00:52:09.070Z,89.82
2022-12-09T00:55:13.406Z,89.62
2022-12-09T00:58:16.305Z,89.47
2022-12-09T01:01:19.961Z,89.35
2022-12-09T01:04:24.957Z,89.43
2022-12-09T01:07:28.543Z,89.44
2022-12-09T01:10:34.407Z,89.02
2022-12-09T01:13:37.378Z,88.65
2022-12-09T01:16:40.319Z,88.63
2022-12-09T01:19:43.337Z,88.91
2022-12-09T01:22:46.637Z,88.81
2022-12-09T01:25:51.024Z,88.90
2022-12-09T01:28:55.637Z,88.77
2022-12-09T01:31:59.120Z,88.56
2022-12-09T01:35:03.193Z,88.50
2022-12-09T01:38:06.040Z,88.85
2022-12-09T01:41:10.636Z,89.07
2022-12-09T01:44:18.083Z,89.22
2022-12-09T01:47:23.633Z,89.17
2022-12-09T01:50:27.260Z,89.43
2022-12-09T01:53:34.542Z,89.52
2022-12-09T01:56:41.548Z,89.74
2022-12-09T01:59:46.006Z,89.81
2022-12-09T02:02:50.607Z,89.71
2022-12-09T02:05:55.161Z,89.19
2022-12-09T02:08:59.209Z,89.34
2022-12-09T02:12:12.990Z,89.02
2022-12-09T02:15:23.129Z,89.03
2022-12-09T02:18:33.465Z,88.88
2022-12-09T02:21:42.892Z,88.98
2022-12-09T02:24:56.982Z,89.07
2022-12-09T02:28:25.903Z,89.66
2022-12-09T02:32:10.441Z,89.72
2022-12-09T02:35:21.467Z,90.02
2022-12-09T02:38:28.240Z,90.28
2022-12-09T02:41:35.275Z,90.43
2022-12-09T02:44:40.735Z,90.34
2022-12-09T02:47:48.841Z,90.71
2022-12-09T02:50:54.863Z,91.23
2022-12-09T02:54:03.418Z,91.48
2022-12-09T02:57:12.824Z,91.64
2022-12-09T03:00:16.947Z,91.67
2022-12-09T03:03:20.348Z,91.78
2022-12-09T03:06:29.057Z,91.53
2022-12-09T03:09:36.009Z,91.67
2022-12-09T03:12:41.962Z,91.25
2022-12-09T03:15:50.011Z,91.27
2022-12-09T03:19:00.730Z,91.55
2022-12-09T03:22:09.291Z,91.43
2022-12-09T03:25:16.534Z,91.03
2022-12-09T03:28:24.416Z,91.29
2022-12-09T03:31:30.108Z,90.86
2022-12-09T03:34:39.723Z,91.02
2022-12-09T03:37:45.892Z,90.78
2022-12-09T03:40:52.593Z,90.74
2022-12-09T03:44:00.528Z,90.25
2022-12-09T03:47:05.258Z,90.51
2022-12-09T03:50:11.674Z,90.27
2022-12-09T03:53:20.370Z,90.30
2022-12-09T03:56:26.630Z,90.29
2022-12-09T03:59:34.262Z,90.58
2022-12-09T04:02:37.730Z,90.28
2022-12-09T04:05:40.933Z,90.40
2022-12-09T04:08:45.266Z,90.30
2022-12-09T04:11:48.682Z,90.56
2022-12-09T04:14:51.951Z,90.54
2022-12-09T04:17:54.924Z,90.52
2022-12-09T04:20:57.839Z,91.04
2022-12-09T04:24:02.540Z,90.97
2022-12-09T04:27:05.721Z,90.67
2022-12-09T04:30:10.493Z,90.42
2022-12-09T04:33:13.938Z,90.19
2022-12-09T04:36:19.249Z,90.52
2022-12-09T04:39:23.551Z,90.74
2022-12-09T04:42:27.146Z,90.77
2022-12-09T04:45:29.983Z,90.54
2022-12-09T04:48:33.622Z,90.44
2022-12-09T04:51:40.006Z,90.87
2022-12-09T04:54:44.457Z,90.69
2022-12-09T04:57:48.061Z,90.58
2022-12-09T05:00:51.070Z,90.26
2022-12-09T05:03:55.495Z,90.17
2022-12-09T05:06:58.752Z,90.26
2022-12-09T05:10:04.052Z,90.07
2022-12-09T05:13:07.225Z,90.38
2022-12-09T05:16:15.946Z,90.17
2022-12-09T05:19:20.336Z,89.96
2022-12-09T05:22:23.480Z,89.96
2022-12-09T05:25:27.640Z,90.18
2022-12-09T05:28:30.835Z,90.26
2022-12-09T05:31:34.187Z,90.66
2022-12-09T05:34:37.441Z,90.93
2022-12-09T05:37:40.647Z,90.92
2022-12-09T05:40:44.979Z,90.73
2022-12-09T05:43:48.429Z,91.07
2022-12-09T05:46:51.455Z,90.92
2022-12-09T05:49:54.815Z,91.21
2022-12-09T05:52:59.199Z,90.99
2022-12-09T05:56:04.086Z,90.86
2022-12-09T05:59:07.246Z,90.69
2022-12-09T06:02:10.629Z,90.52
2022-12-09T06:05:14.517Z,91.05
2022-12-09T06:08:51.546Z,91.46
2022-12-09T06:11:56.330Z,91.75
2022-12-09T06:14:59.572Z,92.31
2022-12-09T06:18:03.057Z,92.87
2022-12-09T06:21:07.524Z,92.95
2022-12-09T06:24:11.156Z,93.38
2022-12-09T06:27:15.667Z,92.71
2022-12-09T06:30:18.644Z,91.88
2022-12-09T06:33:45.899Z,91.40
2022-12-09T06:36:44.664Z,91.50
2022-12-09T06:39:48.496Z,91.41
2022-12-09T06:42:53.258Z,91.47
2022-12-09T06:45:56.445Z,91.58
2022-12-09T06:48:59.423Z,90.87
2022-12-09T06:52:03.110Z,90.85
2022-12-09T06:55:07.605Z,90.74
2022-12-09T06:58:12.816Z,90.58
2022-12-09T07:01:17.727Z,90.82
2022-12-09T07:04:21.722Z,90.43
2022-12-09T07:07:25.237Z,90.41
2022-12-09T07:10:28.561Z,90.52
2022-12-09T07:13:33.883Z,90.38
2022-12-09T07:16:37.546Z,90.14
2022-12-09T07:19:40.878Z,90.28
2022-12-09T07:22:43.731Z,90.17
2022-12-09T07:25:46.663Z,90.12
2022-12-09T07:28:51.923Z,90.02
2022-12-09T07:31:55.038Z,89.98
2022-12-09T07:34:58.612Z,89.81
2022-12-09T07:38:02.308Z,89.75
2022-12-09T07:41:06.976Z,89.73
2022-12-09T07:44:13.443Z,89.71
2022-12-09T07:47:16.436Z,89.66
2022-12-09T07:50:19.832Z,89.90
2022-12-09T07:53:23.078Z,89.88
2022-12-09T07:56:28.385Z,89.58
2022-12-09T07:59:33.597Z,89.57
2022-12-09T08:02:36.713Z,89.57
2022-12-09T08:05:48.018Z,89.45
2022-12-09T08:08:51.366Z,89.65
2022-12-09T08:11:55.965Z,89.34
2022-12-09T08:15:00.890Z,89.66
2022-12-09T08:18:04.718Z,89.50
2022-12-09T08:21:19.721Z,89.57
2022-12-09T08:24:23.534Z,89.60
2022-12-09T08:27:26.812Z,88.86
2022-12-09T08:30:31.633Z,89.29
2022-12-09T08:33:35.705Z,88.80
2022-12-09T08:36:40.682Z,87.67
2022-12-09T08:39:43.778Z,87.47
2022-12-09T08:42:48.538Z,88.05
2022-12-09T08:45:53.215Z,88.54
2022-12-09T08:48:56.546Z,88.67
2022-12-09T08:51:59.778Z,88.21
2022-12-09T08:55:03.701Z,87.86
2022-12-09T08:58:07.065Z,87.91
2022-12-09T09:01:17.996Z,87.38
2022-12-09T09:04:23.252Z,87.08
2022-12-09T09:07:27.288Z,86.09
2022-12-09T09:10:31.135Z,86.41
2022-12-09T09:13:34.724Z,86.65
2022-12-09T09:16:41.983Z,87.47
2022-12-09T09:19:45.648Z,85.76
2022-12-09T09:22:49.219Z,84.87
2022-12-09T09:25:52.929Z,85.81
2022-12-09T09:28:57.185Z,86.15
2022-12-09T09:32:01.990Z,86.24
2022-12-09T09:35:06.405Z,85.05
2022-12-09T09:45:19.222Z,86.29
2022-12-09T09:48:28.148Z,86.62
2022-12-09T09:51:35.085Z,86.63
2022-12-09T09:54:41.012Z,86.87
2022-12-09T09:57:48.682Z,86.46
2022-12-09T10:01:01.891Z,86.01
2022-12-09T10:04:18.233Z,84.96
2022-12-09T10:07:32.416Z,84.45
2022-12-09T10:10:44.229Z,84.55
2022-12-09T10:13:54.963Z,85.39
2022-12-09T10:17:11.064Z,84.27
2022-12-09T10:20:20.301Z,84.39
2022-12-09T10:23:26.160Z,84.21
2022-12-09T10:26:33.653Z,84.53
2022-12-09T10:33:14.808Z,84.41
2022-12-09T10:36:32.144Z,84.18
2022-12-09T10:39:38.831Z,83.71
2022-12-09T10:43:03.807Z,83.29
2022-12-09T10:46:19.975Z,82.00
2022-12-09T10:49:23.829Z,80.47
2022-12-09T10:52:31.789Z,80.82
2022-12-09T10:55:38.140Z,80.78
2022-12-09T10:58:41.442Z,80.57
2022-12-09T11:01:53.832Z,77.38
2022-12-09T11:04:57.953Z,76.52
2022-12-09T11:08:04.186Z,75.76
2022-12-09T11:11:07.733Z,76.51
2022-12-09T11:14:23.196Z,76.86
2022-12-09T11:17:28.559Z,76.63
2022-12-09T11:20:33.718Z,76.32
2022-12-09T11:23:38.687Z,74.94
2022-12-09T11:26:41.952Z,75.47
2022-12-09T11:29:44.896Z,75.21
2022-12-09T11:32:57.574Z,75.37
2022-12-09T11:39:25.070Z,76.18
2022-12-09T11:42:30.746Z,76.54
2022-12-09T11:45:38.354Z,76.39
2022-12-09T11:48:44.038Z,76.10
2022-12-09T11:52:01.388Z,75.20
2022-12-09T11:55:13.363Z,74.20
2022-12-09T11:58:19.829Z,75.06
2022-12-09T12:01:27.902Z,73.37
2022-12-09T12:04:36.487Z,73.93
2022-12-09T12:07:45.178Z,73.87
2022-12-09T12:10:56.454Z,74.22
2022-12-09T12:14:04.629Z,74.48
2022-12-09T12:17:16.253Z,74.37
2022-12-09T12:20:19.446Z,75.08
2022-12-09T12:23:41.336Z,74.43
2022-12-09T12:26:54.437Z,75.32
2022-12-09T12:30:01.937Z,74.14
2022-12-09T12:36:55.422Z,75.74
2022-12-09T12:40:07.063Z,75.83
2022-12-09T12:43:45.164Z,75.50
2022-12-09T12:47:00.139Z,76.03
2022-12-09T12:50:20.211Z,75.89
2022-12-09T12:53:36.182Z,77.39
2022-12-09T12:56:44.751Z,77.69
2022-12-09T12:59:58.460Z,75.07
2022-12-09T13:03:13.776Z,74.63
2022-12-09T13:06:20.904Z,75.50
2022-12-09T13:09:32.273Z,73.92
2022-12-09T13:12:56.684Z,74.57
2022-12-09T13:16:16.937Z,75.71
2022-12-09T13:19:24.700Z,74.30
2022-12-09T13:22:35.046Z,75.57
2022-12-09T13:25:44.615Z,75.15
2022-12-09T13:28:54.368Z,75.44
2022-12-09T13:32:08.564Z,75.69
2022-12-09T13:35:30.135Z,75.11
2022-12-09T13:38:42.974Z,75.74
2022-12-09T13:42:07.567Z,75.12
2022-12-09T13:45:17.375Z,75.74
2022-12-09T13:48:47.479Z,75.55
2022-12-09T13:51:52.488Z,75.49
2022-12-09T13:54:55.284Z,75.57
2022-12-09T13:58:12.601Z,75.92
2022-12-09T14:01:25.340Z,76.13
2022-12-09T14:04:32.750Z,76.48
2022-12-09T14:07:41.847Z,76.65
2022-12-09T14:10:47.663Z,76.66
2022-12-09T14:13:50.438Z,76.78
2022-12-09T14:16:54.304Z,76.66
2022-12-09T14:20:04.787Z,76.25
2022-12-09T14:23:18.430Z,76.45
2022-12-09T14:26:35.106Z,76.15
2022-12-09T14:29:53.153Z,76.67
2022-12-09T14:32:57.873Z,76.43
2022-12-09T14:36:06.968Z,77.38
2022-12-09T14:39:25.020Z,76.82
2022-12-09T14:42:41.579Z,76.99
2022-12-09T14:46:00.114Z,77.28
2022-12-09T14:49:11.812Z,76.87
2022-12-09T14:52:24.883Z,77.29
2022-12-09T14:55:30.284Z,77.68
2022-12-09T14:58:34.134Z,77.51
2022-12-09T15:01:51.750Z,77.67
2022-12-09T15:04:55.578Z,78.05
2022-12-09T15:07:59.801Z,78.24
2022-12-09T15:11:06.992Z,78.38
2022-12-09T15:14:29.577Z,78.53
2022-12-09T15:17:36.954Z,79.26
2022-12-09T15:20:43.618Z,78.85
2022-12-09T15:23:47.816Z,79.43
2022-12-09T15:26:58.716Z,79.74
2022-12-09T15:30:01.709Z,79.98
2022-12-09T15:33:13.558Z,79.60
2022-12-09T15:36:19.686Z,80.08
2022-12-09T15:39:26.730Z,79.96
2022-12-09T15:42:32.116Z,79.99
2022-12-09T15:45:37.247Z,80.19
2022-12-09T15:48:45.889Z,80.05
2022-12-09T15:51:50.545Z,80.13
2022-12-09T15:54:55.809Z,79.76
2022-12-09T15:58:05.470Z,79.78
2022-12-09T16:01:08.637Z,80.03
2022-12-09T16:04:11.407Z,80.03
2022-12-09T16:07:21.182Z,79.67
2022-12-09T16:10:28.989Z,79.26
2022-12-09T16:13:32.440Z,79.78
2022-12-09T16:16:43.950Z,79.54
2022-12-09T16:19:50.251Z,79.99
2022-12-09T16:22:52.980Z,80.19
2022-12-09T16:26:06.403Z,80.18
2022-12-09T16:29:22.416Z,80.48
2022-12-09T16:32:28.469Z,80.41
2022-12-09T16:35:37.070Z,80.35
2022-12-09T16:38:39.797Z,80.62
2022-12-09T16:42:00.679Z,80.32
2022-12-09T16:45:29.764Z,80.39
2022-12-09T16:48:35.761Z,80.65
2022-12-09T16:51:40.134Z,80.26
2022-12-09T16:54:44.555Z,80.35
2022-12-09T16:57:51.743Z,80.36
2022-12-09T17:00:56.273Z,80.60
2022-12-09T17:04:04.944Z,80.61
2022-12-09T17:07:07.844Z,80.92
2022-12-09T17:10:13.906Z,81.10
2022-12-09T17:13:18.111Z,81.13
2022-12-09T17:16:22.186Z,81.10
2022-12-09T17:19:28.101Z,80.87
2022-12-09T17:22:33.245Z,81.25
2022-12-09T17:25:35.991Z,81.10
2022-12-09T17:28:40.894Z,81.60
2022-12-09T17:31:43.706Z,81.53
2022-12-09T17:34:47.668Z,81.60
2022-12-09T17:37:50.438Z,81.83
2022-12-09T17:40:53.173Z,81.76
2022-12-09T17:43:57.989Z,81.50
2022-12-09T17:47:00.715Z,81.57
2022-12-09T17:50:03.420Z,81.86
2022-12-09T17:53:06.681Z,82.04
2022-12-09T17:56:10.809Z,82.05
2022-12-09T17:59:17.486Z,82.01
2022-12-09T18:02:23.342Z,82.19
2022-12-09T18:05:29.278Z,82.35
2022-12-09T18:08:32.052Z,82.35
2022-12-09T18:11:35.607Z,82.28
2022-12-09T18:14:39.682Z,82.19
2022-12-09T18:17:42.446Z,82.39
2022-12-09T18:20:52.661Z,82.63
2022-12-09T18:23:55.546Z,82.33
2022-12-09T18:26:58.774Z,82.78
2022-12-09T18:30:06.741Z,82.73
2022-12-09T18:33:09.730Z,82.66
2022-12-09T18:36:14.568Z,82.94
2022-12-09T18:39:17.501Z,83.07
2022-12-09T18:42:20.526Z,82.81
2022-12-09T18:45:24.757Z,82.84
2022-12-09T18:48:27.482Z,82.88
2022-12-09T18:51:31.331Z,82.91
2022-12-09T18:54:34.147Z,83.06
2022-12-09T18:57:36.935Z,83.23
2022-12-09T19:00:41.258Z,83.37
2022-12-09T19:03:44.521Z,83.21
2022-12-09T19:06:48.771Z,83.40
2022-12-09T19:09:51.574Z,83.39
2022-12-09T19:12:57.006Z,83.33
2022-12-09T19:16:05.049Z,83.24
2022-12-09T19:19:10.310Z,83.62
2022-12-09T19:22:13.604Z,83.76
2022-12-09T19:25:18.202Z,83.56
2022-12-09T19:28:21.064Z,83.66
2022-12-09T19:31:26.752Z,83.71
2022-12-09T19:34:30.981Z,83.94
2022-12-09T19:37:36.198Z,83.95
2022-12-09T19:40:38.996Z,83.79
2022-12-09T19:43:41.713Z,84.02
2022-12-09T19:46:46.383Z,83.71
2022-12-09T19:49:49.257Z,83.94
2022-12-09T19:52:52.029Z,84.09
2022-12-09T19:55:55.060Z,84.00
2022-12-09T19:58:58.206Z,84.15
2022-12-09T20:02:03.692Z,84.19
2022-12-09T20:05:07.364Z,84.29
2022-12-09T20:08:11.060Z,84.26
2022-12-09T20:11:26.990Z,84.11
2022-12-09T20:14:30.065Z,84.24
2022-12-09T20:17:34.455Z,84.46
2022-12-09T20:20:38.232Z,84.27
2022-12-09T20:23:44.769Z,84.64
2022-12-09T20:26:48.081Z,84.39
2022-12-09T20:29:50.803Z,84.79
2022-12-09T20:32:55.054Z,84.29
2022-12-09T20:35:58.789Z,84.54
2022-12-09T20:39:03.231Z,84.67
2022-12-09T20:42:09.012Z,84.57
2022-12-09T20:45:12.455Z,84.73
2022-12-09T20:48:33.428Z,84.43
2022-12-09T20:51:38.231Z,84.78
2022-12-09T20:54:41.034Z,84.84
2022-12-09T20:57:43.902Z,84.67
2022-12-09T21:00:52.033Z,84.53
2022-12-09T21:04:00.555Z,84.79
2022-12-09T21:07:04.191Z,84.65
2022-12-09T21:10:07.695Z,84.59
2022-12-09T21:13:10.806Z,84.78
2022-12-09T21:16:16.766Z,84.94
2022-12-09T21:19:24.985Z,84.88
2022-12-09T21:22:30.486Z,85.09
2022-12-09T21:25:33.578Z,84.94
2022-12-09T21:28:36.962Z,84.79
2022-12-09T21:31:44.219Z,84.82
2022-12-09T21:34:48.432Z,84.83
2022-12-09T21:37:56.209Z,84.87
2022-12-09T21:41:03.676Z,84.74
2022-12-09T21:44:08.893Z,84.94
2022-12-09T21:47:11.620Z,84.94
2022-12-09T21:50:15.811Z,84.91
2022-12-09T21:53:18.491Z,85.11
2022-12-09T21:56:22.727Z,85.11
2022-12-09T21:59:25.556Z,85.16
2022-12-09T22:02:28.479Z,85.48
2022-12-09T22:05:33.787Z,85.32
2022-12-09T22:08:38.650Z,85.31
2022-12-09T22:11:41.826Z,85.48
2022-12-09T22:14:44.525Z,85.42
2022-12-09T22:17:47.486Z,85.24
2022-12-09T22:24:15.034Z,85.36
2022-12-09T22:27:17.766Z,85.41
2022-12-09T22:30:20.523Z,85.31
2022-12-09T22:33:23.307Z,85.60
2022-12-09T22:36:28.181Z,85.36
2022-12-09T22:39:30.914Z,85.41
2022-12-09T22:42:33.638Z,85.45
2022-12-09T22:45:42.406Z,85.64
2022-12-09T22:48:45.328Z,85.73
2022-12-09T22:51:55.171Z,85.53
2022-12-09T22:55:01.899Z,85.64
2022-12-09T22:58:04.918Z,85.62
2022-12-09T23:01:11.344Z,85.82
2022-12-09T23:04:16.575Z,85.69
2022-12-09T23:07:20.713Z,85.75
2022-12-09T23:10:23.456Z,85.73
2022-12-09T23:13:26.201Z,85.78
2022-12-09T23:16:31.634Z,85.89
2022-12-09T23:19:35.076Z,85.85
2022-12-09T23:22:39.234Z,85.87
2022-12-09T23:25:42.020Z,86.03
2022-12-09T23:28:47.059Z,86.06
2022-12-09T23:31:50.489Z,85.97
2022-12-09T23:34:53.233Z,86.13
2022-12-09T23:37:57.321Z,86.05
2022-12-09T23:41:00.127Z,86.38
2022-12-09T23:44:08.789Z,86.13
2022-12-09T23:47:11.541Z,86.09
2022-12-09T23:50:19.035Z,86.25
2022-12-09T23:53:23.300Z,86.00
2022-12-09T23:56:27.790Z,86.14
2022-12-09T23:59:37.151Z,85.96
